This is the latest recevied weather packets stored in our database for station/object OM8AGG-10. If no packets are shown the sender has not sent any weather packets the latest 10 day(s).
| Time | Temp. | Humidity | Pressure | Rain* | Wind** | Luminosity | Snow |
|---|---|---|---|---|---|---|---|
| 1777958396 | 7.78° C | 84% | 1017.4 hPa | - | - | - | - |
| 1777957496 | 6.11° C | 93% | 1017.6 hPa | - | - | - | - |
| 1777956596 | 4.44° C | 99% | 1017.6 hPa | - | - | - | - |
| 1777955696 | 3.33° C | 97% | 1017.6 hPa | - | - | - | - |
| 1777954795 | 3.33° C | 97% | 1017.6 hPa | - | - | - | - |
| 1777953895 | 3.33° C | 98% | 1017.5 hPa | - | - | - | - |
| 1777952995 | 2.78° C | 98% | 1017.5 hPa | - | - | - | - |
| 1777952095 | 2.78° C | 98% | 1017.4 hPa | - | - | - | - |
| 1777951195 | 2.78° C | 97% | 1017.2 hPa | - | - | - | - |
| 1777950295 | 2.78° C | 99% | 1017.4 hPa | - | - | - | - |
| 1777949401 | 2.22° C | 99% | 1017.3 hPa | - | - | - | - |
| 1777949395 | 2.22° C | 99% | 1017.3 hPa | - | - | - | - |
| 1777948838 | 2.22° C | 97% | 1017.4 hPa | - | - | - | - |
| 1777948774 | 2.22° C | 97% | 1017.4 hPa | - | - | - | - |
| 1777948495 | 2.22° C | 97% | 1017.4 hPa | - | - | - | - |
| 1777947595 | 2.78° C | 98% | 1017.4 hPa | - | - | - | - |
| 1777946695 | 2.78° C | 97% | 1017.2 hPa | - | - | - | - |
| 1777945795 | 3.33° C | 97% | 1017.3 hPa | - | - | - | - |
| 1777944895 | 3.89° C | 94% | 1017.4 hPa | - | - | - | - |
| 1777943995 | 3.89° C | 92% | 1017.3 hPa | - | - | - | - |
| 1777943094 | 3.89° C | 94% | 1017.3 hPa | - | - | - | - |
| 1777942194 | 3.89° C | 94% | 1017.4 hPa | - | - | - | - |
| 1777941294 | 4.44° C | 96% | 1017.4 hPa | - | - | - | - |
| 1777940394 | 4.44° C | 92% | 1017.5 hPa | - | - | - | - |
| 1777939494 | 4.44° C | 91% | 1017.6 hPa | - | - | - | - |
* Rain since midnight (hover to see other rain measurements)
** Current wind speed in m/s (hover to see current wind gust speed)